Edgeworth, Australia

4:41 AM AEDT on December 04, 2016 (GMT +1100)
INEWSOUT101 | | Change Station

Elev 95 ft 32.92 °S, 151.62 °E | Updated 7 seconds ago

Clear
Clear
65.8 °F
Feels Like 65.8 °F
N
0.0
Wind Variable Wind from West
Gusts 0.0 mph

Today
High -- | Low -- °F
--% Chance of Precip.
Yesterday
High -- | Low -- °F
Precip. -- in
Pressure 29.95 in
Visibility 3.7 miles
Clouds
Dew Point 60 °F
Humidity 83%
Rainfall 0.00 in
Snow Depth Not available.
5:37 AM 7:49 PM
Waxing Crescent, 16% visible
SPECI YWLM 031737Z AUTO 24002KT 6000 // NCD 18/18 Q1014
Pressure 29.95 in
Visibility 3.7 miles
Clouds
Dew Point 60 °F
Humidity 83%
Rainfall 0.00 in
Snow Depth Not available.
5:37 AM 7:49 PM
Waxing Crescent, 16% visible
SPECI YWLM 031737Z AUTO 24002KT 6000 // NCD 18/18 Q1014

10-Day Weather Forecast

×

Almanac

Astronomy

Dec. 04, 2016 Rise Set
Actual Time
Civil Twilight
Nautical Twilight
Astronomical Twilight
Moon
Length of Visible Light
Length of Day
Tomorrow will be .
, % of the Moon is Illuminated

Today's Extremes

Country Highs Country Lows

Community

WunderPhotos

Upload Photos

1,955,455 photos uploaded!

WunderBlog® & News

Nearby

Air Quality

  Air Quality AQ Index Pollutant
Not available.

Snow Depth

Station Depth Elevation

Earthquake Activity

City Distance Mag. Time & Date
Minimum magnitude displayed is 2.5.

Coastal Water Temperatures

Place Temperature

Stations

Nearby Weather Stations

Station Location Temp. Windchill Dew Point Humidity Wind Precip. Elev Updated Type